sensor_id;sensor_type;location;lat;lon;timestamp;temperature;humidity
60293;DHT22;52402;52.670;6.750;2023-04-26T00:01:42;3.10;99.90
60293;DHT22;52402;52.670;6.750;2023-04-26T00:04:08;3.10;99.90
60293;DHT22;52402;52.670;6.750;2023-04-26T00:06:43;3.00;99.90
60293;DHT22;52402;52.670;6.750;2023-04-26T00:09:15;3.00;99.90
60293;DHT22;52402;52.670;6.750;2023-04-26T00:11:48;3.00;99.90
60293;DHT22;52402;52.670;6.750;2023-04-26T00:14:16;3.00;99.90
60293;DHT22;52402;52.670;6.750;2023-04-26T00:16:44;3.00;99.90
60293;DHT22;52402;52.670;6.750;2023-04-26T00:19:10;3.00;99.90
60293;DHT22;52402;52.670;6.750;2023-04-26T00:21:39;2.90;99.90
60293;DHT22;52402;52.670;6.750;2023-04-26T00:24:09;2.90;99.90
60293;DHT22;52402;52.670;6.750;2023-04-26T00:26:41;2.90;99.90
60293;DHT22;52402;52.670;6.750;2023-04-26T00:29:10;2.90;99.90
60293;DHT22;52402;52.670;6.750;2023-04-26T00:31:35;2.90;99.90
60293;DHT22;52402;52.670;6.750;2023-04-26T00:34:08;2.90;99.90
60293;DHT22;52402;52.670;6.750;2023-04-26T00:36:36;2.90;99.90
60293;DHT22;52402;52.670;6.750;2023-04-26T00:39:07;2.90;99.90
60293;DHT22;52402;52.670;6.750;2023-04-26T00:41:40;2.90;99.90
60293;DHT22;52402;52.670;6.750;2023-04-26T00:44:13;2.80;99.90
60293;DHT22;52402;52.670;6.750;2023-04-26T00:46:43;2.80;99.90
60293;DHT22;52402;52.670;6.750;2023-04-26T00:49:23;2.90;99.90
60293;DHT22;52402;52.670;6.750;2023-04-26T00:51:53;2.80;99.90
60293;DHT22;52402;52.670;6.750;2023-04-26T00:54:26;2.80;99.90
60293;DHT22;52402;52.670;6.750;2023-04-26T00:56:54;2.90;99.90
60293;DHT22;52402;52.670;6.750;2023-04-26T00:59:25;2.90;99.90
60293;DHT22;52402;52.670;6.750;2023-04-26T01:01:54;3.00;99.90
60293;DHT22;52402;52.670;6.750;2023-04-26T01:04:28;3.00;99.90
60293;DHT22;52402;52.670;6.750;2023-04-26T01:06:59;3.10;99.90
60293;DHT22;52402;52.670;6.750;2023-04-26T01:09:29;3.10;99.90
60293;DHT22;52402;52.670;6.750;2023-04-26T01:12:03;3.20;99.90
60293;DHT22;52402;52.670;6.750;2023-04-26T01:14:37;3.20;99.90
60293;DHT22;52402;52.670;6.750;2023-04-26T01:17:08;3.20;99.90
60293;DHT22;52402;52.670;6.750;2023-04-26T01:19:48;3.20;99.90
60293;DHT22;52402;52.670;6.750;2023-04-26T01:22:16;3.20;99.90
60293;DHT22;52402;52.670;6.750;2023-04-26T01:24:47;3.30;99.90
60293;DHT22;52402;52.670;6.750;2023-04-26T01:27:23;3.30;99.90
60293;DHT22;52402;52.670;6.750;2023-04-26T01:29:54;3.30;99.90
60293;DHT22;52402;52.670;6.750;2023-04-26T01:32:22;3.30;99.90
60293;DHT22;52402;52.670;6.750;2023-04-26T01:34:50;3.30;99.90
60293;DHT22;52402;52.670;6.750;2023-04-26T01:37:18;3.30;99.90
60293;DHT22;52402;52.670;6.750;2023-04-26T01:39:48;3.30;99.90
60293;DHT22;52402;52.670;6.750;2023-04-26T01:42:19;3.30;99.90
60293;DHT22;52402;52.670;6.750;2023-04-26T01:44:51;3.40;99.90
60293;DHT22;52402;52.670;6.750;2023-04-26T01:47:21;3.30;99.90
60293;DHT22;52402;52.670;6.750;2023-04-26T01:49:54;3.40;99.90
60293;DHT22;52402;52.670;6.750;2023-04-26T01:52:24;3.40;99.90
60293;DHT22;52402;52.670;6.750;2023-04-26T01:54:57;3.40;99.90
60293;DHT22;52402;52.670;6.750;2023-04-26T01:57:26;3.40;99.90
60293;DHT22;52402;52.670;6.750;2023-04-26T02:00:01;3.40;99.90
60293;DHT22;52402;52.670;6.750;2023-04-26T02:02:32;3.30;99.90
60293;DHT22;52402;52.670;6.750;2023-04-26T02:05:08;3.30;99.90
60293;DHT22;52402;52.670;6.750;2023-04-26T02:07:33;3.30;99.90
60293;DHT22;52402;52.670;6.750;2023-04-26T02:09:59;3.20;99.90
60293;DHT22;52402;52.670;6.750;2023-04-26T02:12:32;3.20;99.90
60293;DHT22;52402;52.670;6.750;2023-04-26T02:15:00;3.20;99.90
60293;DHT22;52402;52.670;6.750;2023-04-26T02:17:29;3.10;99.90
60293;DHT22;52402;52.670;6.750;2023-04-26T02:19:59;3.00;99.90
60293;DHT22;52402;52.670;6.750;2023-04-26T02:22:27;3.10;99.90
60293;DHT22;52402;52.670;6.750;2023-04-26T02:25:00;3.00;99.90
60293;DHT22;52402;52.670;6.750;2023-04-26T02:27:30;3.00;99.90
60293;DHT22;52402;52.670;6.750;2023-04-26T02:30:00;2.90;99.90
60293;DHT22;52402;52.670;6.750;2023-04-26T02:32:28;2.90;99.90
60293;DHT22;52402;52.670;6.750;2023-04-26T02:34:58;2.90;99.90
60293;DHT22;52402;52.670;6.750;2023-04-26T02:37:26;2.90;99.90
60293;DHT22;52402;52.670;6.750;2023-04-26T02:39:57;2.80;99.90
60293;DHT22;52402;52.670;6.750;2023-04-26T02:42:27;2.90;99.90
60293;DHT22;52402;52.670;6.750;2023-04-26T02:44:57;2.90;99.90
60293;DHT22;52402;52.670;6.750;2023-04-26T02:47:25;2.80;99.90
60293;DHT22;52402;52.670;6.750;2023-04-26T02:49:57;2.80;99.90
60293;DHT22;52402;52.670;6.750;2023-04-26T02:52:30;2.80;99.90
60293;DHT22;52402;52.670;6.750;2023-04-26T02:55:02;2.80;99.90
60293;DHT22;52402;52.670;6.750;2023-04-26T02:57:31;2.70;99.90
60293;DHT22;52402;52.670;6.750;2023-04-26T02:59:59;2.80;99.90
60293;DHT22;52402;52.670;6.750;2023-04-26T03:02:28;2.80;99.90
60293;DHT22;52402;52.670;6.750;2023-04-26T03:04:57;2.80;99.90
60293;DHT22;52402;52.670;6.750;2023-04-26T03:07:29;2.70;99.90
60293;DHT22;52402;52.670;6.750;2023-04-26T03:09:56;2.70;99.90
60293;DHT22;52402;52.670;6.750;2023-04-26T03:12:26;2.70;99.90
60293;DHT22;52402;52.670;6.750;2023-04-26T03:14:56;2.70;99.90
60293;DHT22;52402;52.670;6.750;2023-04-26T03:17:27;2.70;99.90
60293;DHT22;52402;52.670;6.750;2023-04-26T03:20:02;2.70;99.90
60293;DHT22;52402;52.670;6.750;2023-04-26T03:22:34;2.60;99.90
60293;DHT22;52402;52.670;6.750;2023-04-26T03:25:04;2.70;99.90
60293;DHT22;52402;52.670;6.750;2023-04-26T03:27:37;2.60;99.90
60293;DHT22;52402;52.670;6.750;2023-04-26T03:30:10;2.60;99.90
60293;DHT22;52402;52.670;6.750;2023-04-26T03:32:40;2.60;99.90
60293;DHT22;52402;52.670;6.750;2023-04-26T03:35:11;2.50;99.90
60293;DHT22;52402;52.670;6.750;2023-04-26T03:37:39;2.60;99.90
60293;DHT22;52402;52.670;6.750;2023-04-26T03:40:12;2.50;99.90
60293;DHT22;52402;52.670;6.750;2023-04-26T03:42:41;2.50;99.90
60293;DHT22;52402;52.670;6.750;2023-04-26T03:45:11;2.50;99.90
60293;DHT22;52402;52.670;6.750;2023-04-26T03:47:37;2.40;99.90
60293;DHT22;52402;52.670;6.750;2023-04-26T03:50:09;2.40;99.90
60293;DHT22;52402;52.670;6.750;2023-04-26T03:52:39;2.40;99.90
60293;DHT22;52402;52.670;6.750;2023-04-26T03:55:09;2.40;99.90
60293;DHT22;52402;52.670;6.750;2023-04-26T03:57:36;2.40;99.90
60293;DHT22;52402;52.670;6.750;2023-04-26T04:00:05;2.40;99.90
60293;DHT22;52402;52.670;6.750;2023-04-26T04:02:45;2.40;99.90
60293;DHT22;52402;52.670;6.750;2023-04-26T04:05:20;2.30;99.90
60293;DHT22;52402;52.670;6.750;2023-04-26T04:07:53;2.30;99.90
60293;DHT22;52402;52.670;6.750;2023-04-26T04:10:23;2.30;99.90
60293;DHT22;52402;52.670;6.750;2023-04-26T04:12:54;2.30;99.90
60293;DHT22;52402;52.670;6.750;2023-04-26T04:15:24;2.30;99.90
60293;DHT22;52402;52.670;6.750;2023-04-26T04:17:52;2.30;99.90
60293;DHT22;52402;52.670;6.750;2023-04-26T04:20:19;2.30;99.90
60293;DHT22;52402;52.670;6.750;2023-04-26T04:22:53;2.30;99.90
60293;DHT22;52402;52.670;6.750;2023-04-26T04:25:23;2.30;99.90
60293;DHT22;52402;52.670;6.750;2023-04-26T04:27:54;2.30;99.90
60293;DHT22;52402;52.670;6.750;2023-04-26T04:30:19;2.30;99.90
60293;DHT22;52402;52.670;6.750;2023-04-26T04:32:52;2.30;99.90
60293;DHT22;52402;52.670;6.750;2023-04-26T04:35:28;2.30;99.90
60293;DHT22;52402;52.670;6.750;2023-04-26T04:38:00;2.30;99.90
60293;DHT22;52402;52.670;6.750;2023-04-26T04:40:29;2.30;99.90
60293;DHT22;52402;52.670;6.750;2023-04-26T04:42:58;2.30;99.90
60293;DHT22;52402;52.670;6.750;2023-04-26T04:45:25;2.30;99.90
60293;DHT22;52402;52.670;6.750;2023-04-26T04:47:59;2.30;99.90
60293;DHT22;52402;52.670;6.750;2023-04-26T04:50:29;2.40;99.90
60293;DHT22;52402;52.670;6.750;2023-04-26T04:52:56;2.40;99.90
60293;DHT22;52402;52.670;6.750;2023-04-26T04:55:28;2.40;99.90
60293;DHT22;52402;52.670;6.750;2023-04-26T04:58:01;2.40;99.90
60293;DHT22;52402;52.670;6.750;2023-04-26T05:00:33;2.50;99.90
60293;DHT22;52402;52.670;6.750;2023-04-26T05:03:05;2.50;99.90
60293;DHT22;52402;52.670;6.750;2023-04-26T05:05:36;2.50;99.90
60293;DHT22;52402;52.670;6.750;2023-04-26T05:08:08;2.60;99.90
60293;DHT22;52402;52.670;6.750;2023-04-26T05:10:36;2.60;99.90
60293;DHT22;52402;52.670;6.750;2023-04-26T05:13:07;2.60;99.90
60293;DHT22;52402;52.670;6.750;2023-04-26T05:15:32;2.60;99.90
60293;DHT22;52402;52.670;6.750;2023-04-26T05:18:04;2.70;99.90
60293;DHT22;52402;52.670;6.750;2023-04-26T05:20:38;2.60;99.90
60293;DHT22;52402;52.670;6.750;2023-04-26T05:23:08;2.70;99.90
60293;DHT22;52402;52.670;6.750;2023-04-26T05:25:36;2.70;99.90
60293;DHT22;52402;52.670;6.750;2023-04-26T05:28:04;2.80;99.90
60293;DHT22;52402;52.670;6.750;2023-04-26T05:30:35;2.80;99.90
60293;DHT22;52402;52.670;6.750;2023-04-26T05:33:10;2.90;99.90
60293;DHT22;52402;52.670;6.750;2023-04-26T05:35:43;2.90;99.90
60293;DHT22;52402;52.670;6.750;2023-04-26T05:38:14;3.00;99.90
60293;DHT22;52402;52.670;6.750;2023-04-26T05:40:44;3.00;99.90
60293;DHT22;52402;52.670;6.750;2023-04-26T05:43:17;3.00;99.90
60293;DHT22;52402;52.670;6.750;2023-04-26T05:45:55;3.10;99.90
60293;DHT22;52402;52.670;6.750;2023-04-26T05:48:26;3.20;99.90
60293;DHT22;52402;52.670;6.750;2023-04-26T05:50:56;3.30;99.90
60293;DHT22;52402;52.670;6.750;2023-04-26T05:53:24;3.40;99.90
60293;DHT22;52402;52.670;6.750;2023-04-26T05:55:55;3.50;99.90
60293;DHT22;52402;52.670;6.750;2023-04-26T05:58:33;3.70;99.90
60293;DHT22;52402;52.670;6.750;2023-04-26T06:01:06;3.90;99.90
60293;DHT22;52402;52.670;6.750;2023-04-26T06:03:36;4.10;99.90
60293;DHT22;52402;52.670;6.750;2023-04-26T06:06:09;4.30;99.90
60293;DHT22;52402;52.670;6.750;2023-04-26T06:08:41;4.50;99.90
60293;DHT22;52402;52.670;6.750;2023-04-26T06:11:15;4.70;99.90
60293;DHT22;52402;52.670;6.750;2023-04-26T06:13:53;4.80;99.90
60293;DHT22;52402;52.670;6.750;2023-04-26T06:16:20;4.90;99.90
60293;DHT22;52402;52.670;6.750;2023-04-26T06:18:51;5.00;99.90
60293;DHT22;52402;52.670;6.750;2023-04-26T06:21:21;5.10;99.90
60293;DHT22;52402;52.670;6.750;2023-04-26T06:23:52;5.30;99.90
60293;DHT22;52402;52.670;6.750;2023-04-26T06:26:25;5.40;99.90
60293;DHT22;52402;52.670;6.750;2023-04-26T06:28:56;5.50;99.90
60293;DHT22;52402;52.670;6.750;2023-04-26T06:31:26;5.60;99.90
60293;DHT22;52402;52.670;6.750;2023-04-26T06:33:59;5.70;99.90
60293;DHT22;52402;52.670;6.750;2023-04-26T06:36:33;5.70;99.90
60293;DHT22;52402;52.670;6.750;2023-04-26T06:39:06;5.80;99.90
60293;DHT22;52402;52.670;6.750;2023-04-26T06:41:39;5.80;99.90
60293;DHT22;52402;52.670;6.750;2023-04-26T06:44:13;5.90;99.90
60293;DHT22;52402;52.670;6.750;2023-04-26T06:47:00;6.00;99.90
60293;DHT22;52402;52.670;6.750;2023-04-26T06:49:44;5.90;99.90
60293;DHT22;52402;52.670;6.750;2023-04-26T06:52:15;5.90;99.90
60293;DHT22;52402;52.670;6.750;2023-04-26T06:54:45;5.90;99.90
60293;DHT22;52402;52.670;6.750;2023-04-26T06:57:25;5.90;99.90
60293;DHT22;52402;52.670;6.750;2023-04-26T07:00:15;5.90;99.90
60293;DHT22;52402;52.670;6.750;2023-04-26T07:03:06;5.90;99.90
60293;DHT22;52402;52.670;6.750;2023-04-26T07:06:00;6.10;99.90
60293;DHT22;52402;52.670;6.750;2023-04-26T07:08:33;6.20;99.90
60293;DHT22;52402;52.670;6.750;2023-04-26T07:11:17;6.30;99.90
60293;DHT22;52402;52.670;6.750;2023-04-26T07:13:46;6.40;99.90
60293;DHT22;52402;52.670;6.750;2023-04-26T07:16:28;6.50;99.90
60293;DHT22;52402;52.670;6.750;2023-04-26T07:19:05;6.60;99.90
60293;DHT22;52402;52.670;6.750;2023-04-26T07:28:56;7.10;99.90
60293;DHT22;52402;52.670;6.750;2023-04-26T07:31:26;7.20;99.90
60293;DHT22;52402;52.670;6.750;2023-04-26T07:33:54;7.30;99.90
60293;DHT22;52402;52.670;6.750;2023-04-26T07:36:27;7.40;99.90
60293;DHT22;52402;52.670;6.750;2023-04-26T07:39:07;7.50;99.90
60293;DHT22;52402;52.670;6.750;2023-04-26T07:41:37;7.60;99.90
60293;DHT22;52402;52.670;6.750;2023-04-26T07:44:10;7.70;99.90
60293;DHT22;52402;52.670;6.750;2023-04-26T07:47:13;7.80;99.90
60293;DHT22;52402;52.670;6.750;2023-04-26T07:52:46;8.10;99.90
60293;DHT22;52402;52.670;6.750;2023-04-26T07:55:50;8.30;99.90
60293;DHT22;52402;52.670;6.750;2023-04-26T07:58:21;8.50;99.90
60293;DHT22;52402;52.670;6.750;2023-04-26T08:01:13;8.50;99.90
60293;DHT22;52402;52.670;6.750;2023-04-26T08:03:58;8.60;99.90
60293;DHT22;52402;52.670;6.750;2023-04-26T08:06:45;8.70;99.90
60293;DHT22;52402;52.670;6.750;2023-04-26T08:09:20;8.70;99.90
60293;DHT22;52402;52.670;6.750;2023-04-26T08:11:56;8.50;99.90
60293;DHT22;52402;52.670;6.750;2023-04-26T08:14:36;8.40;99.90
60293;DHT22;52402;52.670;6.750;2023-04-26T08:17:16;8.30;99.90
60293;DHT22;52402;52.670;6.750;2023-04-26T08:20:16;8.20;99.90
60293;DHT22;52402;52.670;6.750;2023-04-26T08:23:08;8.10;99.90
60293;DHT22;52402;52.670;6.750;2023-04-26T08:25:40;8.20;99.90
60293;DHT22;52402;52.670;6.750;2023-04-26T08:28:25;8.20;99.90
60293;DHT22;52402;52.670;6.750;2023-04-26T08:34:01;8.50;99.90
60293;DHT22;52402;52.670;6.750;2023-04-26T08:36:40;8.60;99.90
60293;DHT22;52402;52.670;6.750;2023-04-26T08:39:27;8.90;99.90
60293;DHT22;52402;52.670;6.750;2023-04-26T08:42:15;8.90;99.90
60293;DHT22;52402;52.670;6.750;2023-04-26T08:45:01;9.10;99.90
60293;DHT22;52402;52.670;6.750;2023-04-26T08:48:06;9.20;99.90
60293;DHT22;52402;52.670;6.750;2023-04-26T08:50:50;9.40;99.90
60293;DHT22;52402;52.670;6.750;2023-04-26T08:53:48;9.70;99.90
60293;DHT22;52402;52.670;6.750;2023-04-26T08:56:23;10.00;99.90
60293;DHT22;52402;52.670;6.750;2023-04-26T09:02:41;9.70;99.90
60293;DHT22;52402;52.670;6.750;2023-04-26T09:05:17;9.60;99.90
60293;DHT22;52402;52.670;6.750;2023-04-26T09:08:03;9.50;99.90
60293;DHT22;52402;52.670;6.750;2023-04-26T09:10:40;9.40;99.90
60293;DHT22;52402;52.670;6.750;2023-04-26T09:13:08;9.10;99.90
60293;DHT22;52402;52.670;6.750;2023-04-26T09:15:37;9.20;99.90
60293;DHT22;52402;52.670;6.750;2023-04-26T09:18:33;9.30;99.90
60293;DHT22;52402;52.670;6.750;2023-04-26T09:27:12;8.90;99.90
60293;DHT22;52402;52.670;6.750;2023-04-26T09:30:13;8.90;99.90
60293;DHT22;52402;52.670;6.750;2023-04-26T09:33:13;8.90;99.90
60293;DHT22;52402;52.670;6.750;2023-04-26T09:36:11;8.90;99.90
60293;DHT22;52402;52.670;6.750;2023-04-26T09:38:50;9.00;99.90
60293;DHT22;52402;52.670;6.750;2023-04-26T09:41:54;9.10;99.90
60293;DHT22;52402;52.670;6.750;2023-04-26T09:44:38;9.40;99.90
60293;DHT22;52402;52.670;6.750;2023-04-26T09:47:10;9.60;99.90
60293;DHT22;52402;52.670;6.750;2023-04-26T09:50:10;9.80;99.90
60293;DHT22;52402;52.670;6.750;2023-04-26T09:55:52;10.60;99.90
60293;DHT22;52402;52.670;6.750;2023-04-26T10:01:40;11.20;99.90
60293;DHT22;52402;52.670;6.750;2023-04-26T10:07:01;11.80;99.90
60293;DHT22;52402;52.670;6.750;2023-04-26T10:09:45;11.40;99.90
60293;DHT22;52402;52.670;6.750;2023-04-26T10:12:34;11.50;99.90
60293;DHT22;52402;52.670;6.750;2023-04-26T10:15:16;11.00;99.90
60293;DHT22;52402;52.670;6.750;2023-04-26T10:17:54;10.80;99.90
60293;DHT22;52402;52.670;6.750;2023-04-26T10:20:23;10.50;99.90
60293;DHT22;52402;52.670;6.750;2023-04-26T10:23:07;10.30;99.90
60293;DHT22;52402;52.670;6.750;2023-04-26T10:25:52;10.20;99.90
60293;DHT22;52402;52.670;6.750;2023-04-26T10:29:10;10.20;99.90
60293;DHT22;52402;52.670;6.750;2023-04-26T10:32:26;10.30;99.90
60293;DHT22;52402;52.670;6.750;2023-04-26T10:35:12;10.50;99.90
60293;DHT22;52402;52.670;6.750;2023-04-26T10:38:12;10.80;99.90
60293;DHT22;52402;52.670;6.750;2023-04-26T10:40:51;11.00;99.90
60293;DHT22;52402;52.670;6.750;2023-04-26T10:46:38;11.60;99.90
60293;DHT22;52402;52.670;6.750;2023-04-26T10:49:33;11.80;99.90
60293;DHT22;52402;52.670;6.750;2023-04-26T10:52:12;12.10;99.90
60293;DHT22;52402;52.670;6.750;2023-04-26T10:54:54;12.50;99.90
60293;DHT22;52402;52.670;6.750;2023-04-26T10:57:47;12.70;99.90
60293;DHT22;52402;52.670;6.750;2023-04-26T11:00:32;12.90;99.90
60293;DHT22;52402;52.670;6.750;2023-04-26T11:03:17;12.60;99.90
60293;DHT22;52402;52.670;6.750;2023-04-26T11:05:55;12.10;99.90
60293;DHT22;52402;52.670;6.750;2023-04-26T11:08:42;11.70;99.90
60293;DHT22;52402;52.670;6.750;2023-04-26T11:11:21;11.20;99.90
60293;DHT22;52402;52.670;6.750;2023-04-26T11:14:10;10.80;99.90
60293;DHT22;52402;52.670;6.750;2023-04-26T11:19:40;9.90;99.90
60293;DHT22;52402;52.670;6.750;2023-04-26T11:22:26;9.60;99.90
60293;DHT22;52402;52.670;6.750;2023-04-26T11:24:58;9.30;99.90
60293;DHT22;52402;52.670;6.750;2023-04-26T11:27:54;9.10;99.90
60293;DHT22;52402;52.670;6.750;2023-04-26T11:30:31;9.10;99.90
60293;DHT22;52402;52.670;6.750;2023-04-26T11:33:26;9.00;99.90
60293;DHT22;52402;52.670;6.750;2023-04-26T11:36:06;8.90;99.90
60293;DHT22;52402;52.670;6.750;2023-04-26T11:42:23;8.80;99.90
60293;DHT22;52402;52.670;6.750;2023-04-26T11:45:08;8.80;99.90
60293;DHT22;52402;52.670;6.750;2023-04-26T11:47:37;8.70;99.90
60293;DHT22;52402;52.670;6.750;2023-04-26T11:50:36;8.70;99.90
60293;DHT22;52402;52.670;6.750;2023-04-26T11:55:57;8.80;99.90
60293;DHT22;52402;52.670;6.750;2023-04-26T11:58:30;8.90;99.90
60293;DHT22;52402;52.670;6.750;2023-04-26T12:00:58;9.00;99.90
60293;DHT22;52402;52.670;6.750;2023-04-26T12:03:32;9.20;99.90
60293;DHT22;52402;52.670;6.750;2023-04-26T12:06:07;9.40;99.90
60293;DHT22;52402;52.670;6.750;2023-04-26T12:08:32;9.40;99.90
60293;DHT22;52402;52.670;6.750;2023-04-26T12:11:04;9.40;99.90
60293;DHT22;52402;52.670;6.750;2023-04-26T12:13:34;9.40;99.90
60293;DHT22;52402;52.670;6.750;2023-04-26T12:16:13;9.60;99.90
60293;DHT22;52402;52.670;6.750;2023-04-26T12:18:48;9.70;99.90
60293;DHT22;52402;52.670;6.750;2023-04-26T12:21:20;9.80;99.90
60293;DHT22;52402;52.670;6.750;2023-04-26T12:23:53;9.90;99.90
60293;DHT22;52402;52.670;6.750;2023-04-26T12:26:38;10.00;99.90
60293;DHT22;52402;52.670;6.750;2023-04-26T12:29:10;10.20;99.90
60293;DHT22;52402;52.670;6.750;2023-04-26T12:31:49;10.20;99.90
60293;DHT22;52402;52.670;6.750;2023-04-26T12:37:22;10.60;99.90
60293;DHT22;52402;52.670;6.750;2023-04-26T12:42:38;10.70;99.90
60293;DHT22;52402;52.670;6.750;2023-04-26T12:45:11;10.80;99.90
60293;DHT22;52402;52.670;6.750;2023-04-26T12:47:41;10.90;99.90
60293;DHT22;52402;52.670;6.750;2023-04-26T12:50:10;10.90;99.90
60293;DHT22;52402;52.670;6.750;2023-04-26T12:52:43;11.00;99.90
60293;DHT22;52402;52.670;6.750;2023-04-26T12:55:14;11.10;99.90
60293;DHT22;52402;52.670;6.750;2023-04-26T12:57:45;11.00;99.90
60293;DHT22;52402;52.670;6.750;2023-04-26T13:00:18;11.10;99.90
60293;DHT22;52402;52.670;6.750;2023-04-26T13:02:50;11.10;99.90
60293;DHT22;52402;52.670;6.750;2023-04-26T13:05:18;11.00;99.90
60293;DHT22;52402;52.670;6.750;2023-04-26T13:07:48;11.00;99.90
60293;DHT22;52402;52.670;6.750;2023-04-26T13:10:24;10.90;99.90
60293;DHT22;52402;52.670;6.750;2023-04-26T13:12:54;10.80;99.90
60293;DHT22;52402;52.670;6.750;2023-04-26T13:15:26;10.60;99.90
60293;DHT22;52402;52.670;6.750;2023-04-26T13:17:55;10.50;99.90
60293;DHT22;52402;52.670;6.750;2023-04-26T13:20:25;10.40;99.90
60293;DHT22;52402;52.670;6.750;2023-04-26T13:22:53;10.10;99.90
60293;DHT22;52402;52.670;6.750;2023-04-26T13:25:23;10.00;99.90
60293;DHT22;52402;52.670;6.750;2023-04-26T13:48:28;9.80;99.90
60293;DHT22;52402;52.670;6.750;2023-04-26T13:50:54;10.00;99.90
60293;DHT22;52402;52.670;6.750;2023-04-26T13:53:23;10.20;99.90
60293;DHT22;52402;52.670;6.750;2023-04-26T13:55:48;10.30;99.90
60293;DHT22;52402;52.670;6.750;2023-04-26T13:58:14;10.40;99.90
60293;DHT22;52402;52.670;6.750;2023-04-26T14:00:40;10.30;99.90
60293;DHT22;52402;52.670;6.750;2023-04-26T14:03:06;10.30;99.90
60293;DHT22;52402;52.670;6.750;2023-04-26T14:05:32;10.30;99.90
60293;DHT22;52402;52.670;6.750;2023-04-26T14:07:57;10.40;99.90
60293;DHT22;52402;52.670;6.750;2023-04-26T14:10:23;10.20;99.90
60293;DHT22;52402;52.670;6.750;2023-04-26T14:12:49;10.10;99.90
60293;DHT22;52402;52.670;6.750;2023-04-26T14:15:14;10.20;99.90
60293;DHT22;52402;52.670;6.750;2023-04-26T14:17:40;10.20;99.90
60293;DHT22;52402;52.670;6.750;2023-04-26T14:20:07;10.10;99.90
60293;DHT22;52402;52.670;6.750;2023-04-26T14:22:34;10.10;99.90
60293;DHT22;52402;52.670;6.750;2023-04-26T14:25:00;10.20;99.90
60293;DHT22;52402;52.670;6.750;2023-04-26T14:27:26;10.20;99.90
60293;DHT22;52402;52.670;6.750;2023-04-26T14:29:51;10.20;99.90
60293;DHT22;52402;52.670;6.750;2023-04-26T14:32:18;10.20;99.90
60293;DHT22;52402;52.670;6.750;2023-04-26T14:34:43;10.10;99.90
60293;DHT22;52402;52.670;6.750;2023-04-26T14:37:09;10.20;99.90
60293;DHT22;52402;52.670;6.750;2023-04-26T14:39:34;10.20;99.90
60293;DHT22;52402;52.670;6.750;2023-04-26T14:42:00;10.20;99.90
60293;DHT22;52402;52.670;6.750;2023-04-26T14:44:27;10.10;99.90
60293;DHT22;52402;52.670;6.750;2023-04-26T14:46:53;10.00;99.90
60293;DHT22;52402;52.670;6.750;2023-04-26T14:49:20;10.10;99.90
60293;DHT22;52402;52.670;6.750;2023-04-26T14:51:46;10.10;99.90
60293;DHT22;52402;52.670;6.750;2023-04-26T14:54:11;10.20;99.90
60293;DHT22;52402;52.670;6.750;2023-04-26T14:59:13;10.20;99.90
60293;DHT22;52402;52.670;6.750;2023-04-26T15:01:39;10.30;99.90
60293;DHT22;52402;52.670;6.750;2023-04-26T15:04:04;10.30;99.90
60293;DHT22;52402;52.670;6.750;2023-04-26T15:06:30;10.20;99.90
60293;DHT22;52402;52.670;6.750;2023-04-26T15:08:57;10.30;99.90
60293;DHT22;52402;52.670;6.750;2023-04-26T15:11:22;10.50;99.90
60293;DHT22;52402;52.670;6.750;2023-04-26T15:13:48;10.50;99.90
60293;DHT22;52402;52.670;6.750;2023-04-26T15:16:14;10.40;99.90
60293;DHT22;52402;52.670;6.750;2023-04-26T15:18:41;10.50;99.90
60293;DHT22;52402;52.670;6.750;2023-04-26T15:21:06;10.50;99.90
60293;DHT22;52402;52.670;6.750;2023-04-26T15:23:36;10.60;99.90
60293;DHT22;52402;52.670;6.750;2023-04-26T15:26:02;10.40;99.90
60293;DHT22;52402;52.670;6.750;2023-04-26T15:28:28;10.50;99.90
60293;DHT22;52402;52.670;6.750;2023-04-26T15:31:01;10.60;99.90
60293;DHT22;52402;52.670;6.750;2023-04-26T15:33:27;10.70;99.90
60293;DHT22;52402;52.670;6.750;2023-04-26T15:35:52;10.80;99.90
60293;DHT22;52402;52.670;6.750;2023-04-26T15:38:18;10.90;99.90
60293;DHT22;52402;52.670;6.750;2023-04-26T15:40:44;10.80;99.90
60293;DHT22;52402;52.670;6.750;2023-04-26T15:43:09;10.80;99.90
60293;DHT22;52402;52.670;6.750;2023-04-26T15:45:35;10.80;99.90
60293;DHT22;52402;52.670;6.750;2023-04-26T15:48:01;10.60;99.90
60293;DHT22;52402;52.670;6.750;2023-04-26T15:50:26;10.40;99.90
60293;DHT22;52402;52.670;6.750;2023-04-26T15:52:52;10.30;99.90
60293;DHT22;52402;52.670;6.750;2023-04-26T15:55:17;10.20;99.90
60293;DHT22;52402;52.670;6.750;2023-04-26T15:57:43;10.10;99.90
60293;DHT22;52402;52.670;6.750;2023-04-26T16:00:09;9.90;99.90
60293;DHT22;52402;52.670;6.750;2023-04-26T16:02:37;9.90;99.90
60293;DHT22;52402;52.670;6.750;2023-04-26T16:05:04;9.70;99.90
60293;DHT22;52402;52.670;6.750;2023-04-26T16:07:31;9.50;99.90
60293;DHT22;52402;52.670;6.750;2023-04-26T16:09:56;9.40;99.90
60293;DHT22;52402;52.670;6.750;2023-04-26T16:12:22;9.20;99.90
60293;DHT22;52402;52.670;6.750;2023-04-26T16:14:47;9.10;99.90
60293;DHT22;52402;52.670;6.750;2023-04-26T16:17:13;8.90;99.90
60293;DHT22;52402;52.670;6.750;2023-04-26T16:19:39;8.90;99.90
60293;DHT22;52402;52.670;6.750;2023-04-26T16:22:04;8.80;99.90
60293;DHT22;52402;52.670;6.750;2023-04-26T16:24:30;8.80;99.90
60293;DHT22;52402;52.670;6.750;2023-04-26T16:26:56;8.70;99.90
60293;DHT22;52402;52.670;6.750;2023-04-26T16:29:21;8.80;99.90
60293;DHT22;52402;52.670;6.750;2023-04-26T16:31:47;8.80;99.90
60293;DHT22;52402;52.670;6.750;2023-04-26T16:34:12;8.90;99.90
60293;DHT22;52402;52.670;6.750;2023-04-26T16:36:38;8.80;99.90
60293;DHT22;52402;52.670;6.750;2023-04-26T16:39:04;8.80;99.90
60293;DHT22;52402;52.670;6.750;2023-04-26T16:41:30;8.80;99.90
60293;DHT22;52402;52.670;6.750;2023-04-26T16:43:55;8.80;99.90
60293;DHT22;52402;52.670;6.750;2023-04-26T16:46:21;8.80;99.90
60293;DHT22;52402;52.670;6.750;2023-04-26T16:48:47;8.80;99.90
60293;DHT22;52402;52.670;6.750;2023-04-26T16:51:13;8.80;99.90
60293;DHT22;52402;52.670;6.750;2023-04-26T16:53:39;8.80;99.90
60293;DHT22;52402;52.670;6.750;2023-04-26T16:56:05;8.80;99.90
60293;DHT22;52402;52.670;6.750;2023-04-26T16:58:30;8.90;99.90
60293;DHT22;52402;52.670;6.750;2023-04-26T17:00:56;8.90;99.90
60293;DHT22;52402;52.670;6.750;2023-04-26T17:03:22;8.90;99.90
60293;DHT22;52402;52.670;6.750;2023-04-26T17:05:48;9.00;99.90
60293;DHT22;52402;52.670;6.750;2023-04-26T17:08:15;8.90;99.90
60293;DHT22;52402;52.670;6.750;2023-04-26T17:10:47;8.90;99.90
60293;DHT22;52402;52.670;6.750;2023-04-26T17:13:13;9.00;99.90
60293;DHT22;52402;52.670;6.750;2023-04-26T17:15:40;9.00;99.90
60293;DHT22;52402;52.670;6.750;2023-04-26T17:18:06;9.00;99.90
60293;DHT22;52402;52.670;6.750;2023-04-26T17:20:32;9.10;99.90
60293;DHT22;52402;52.670;6.750;2023-04-26T17:22:59;9.10;99.90
60293;DHT22;52402;52.670;6.750;2023-04-26T17:25:26;9.10;99.90
60293;DHT22;52402;52.670;6.750;2023-04-26T17:27:52;9.00;99.90
60293;DHT22;52402;52.670;6.750;2023-04-26T17:30:19;9.00;99.90
60293;DHT22;52402;52.670;6.750;2023-04-26T17:32:45;8.90;99.90